sensor_id;sensor_type;location;lat;lon;timestamp;temperature;humidity
4596;DHT22;2310;49.978;8.742;2024-03-08T00:01:59;7.10;99.90
4596;DHT22;2310;49.978;8.742;2024-03-08T00:06:00;7.00;99.90
4596;DHT22;2310;49.978;8.742;2024-03-08T00:10:03;6.90;99.90
4596;DHT22;2310;49.978;8.742;2024-03-08T00:14:05;6.80;99.90
4596;DHT22;2310;49.978;8.742;2024-03-08T00:18:07;6.60;99.90
4596;DHT22;2310;49.978;8.742;2024-03-08T00:22:10;6.70;99.90
4596;DHT22;2310;49.978;8.742;2024-03-08T00:26:12;6.60;99.90
4596;DHT22;2310;49.978;8.742;2024-03-08T00:30:14;6.50;99.90
4596;DHT22;2310;49.978;8.742;2024-03-08T00:34:15;6.50;99.90
4596;DHT22;2310;49.978;8.742;2024-03-08T00:38:17;6.40;99.90
4596;DHT22;2310;49.978;8.742;2024-03-08T00:42:20;6.50;99.90
4596;DHT22;2310;49.978;8.742;2024-03-08T00:46:21;6.50;99.90
4596;DHT22;2310;49.978;8.742;2024-03-08T00:50:23;6.20;99.90
4596;DHT22;2310;49.978;8.742;2024-03-08T00:54:24;6.10;99.90
4596;DHT22;2310;49.978;8.742;2024-03-08T00:58:26;6.00;99.90
4596;DHT22;2310;49.978;8.742;2024-03-08T01:02:27;5.70;99.90
4596;DHT22;2310;49.978;8.742;2024-03-08T01:06:29;5.50;99.90
4596;DHT22;2310;49.978;8.742;2024-03-08T01:10:30;5.30;99.90
4596;DHT22;2310;49.978;8.742;2024-03-08T01:14:32;5.10;99.90
4596;DHT22;2310;49.978;8.742;2024-03-08T01:18:34;5.10;99.90
4596;DHT22;2310;49.978;8.742;2024-03-08T01:22:36;5.20;99.90
4596;DHT22;2310;49.978;8.742;2024-03-08T01:26:37;5.40;99.90
4596;DHT22;2310;49.978;8.742;2024-03-08T01:30:40;5.50;99.90
4596;DHT22;2310;49.978;8.742;2024-03-08T01:34:43;5.50;99.90
4596;DHT22;2310;49.978;8.742;2024-03-08T01:38:46;5.20;99.90
4596;DHT22;2310;49.978;8.742;2024-03-08T01:42:47;5.10;99.90
4596;DHT22;2310;49.978;8.742;2024-03-08T01:46:50;4.90;99.90
4596;DHT22;2310;49.978;8.742;2024-03-08T01:50:53;5.00;99.90
4596;DHT22;2310;49.978;8.742;2024-03-08T01:54:55;5.00;99.90
4596;DHT22;2310;49.978;8.742;2024-03-08T01:58:58;4.90;99.90
4596;DHT22;2310;49.978;8.742;2024-03-08T02:03:02;4.90;99.90
4596;DHT22;2310;49.978;8.742;2024-03-08T02:07:04;4.90;99.90
4596;DHT22;2310;49.978;8.742;2024-03-08T02:11:07;4.80;99.90
4596;DHT22;2310;49.978;8.742;2024-03-08T02:15:08;4.80;99.90
4596;DHT22;2310;49.978;8.742;2024-03-08T02:19:10;4.90;99.90
4596;DHT22;2310;49.978;8.742;2024-03-08T02:23:11;4.90;99.90
4596;DHT22;2310;49.978;8.742;2024-03-08T02:27:15;4.90;99.90
4596;DHT22;2310;49.978;8.742;2024-03-08T02:31:18;4.70;99.90
4596;DHT22;2310;49.978;8.742;2024-03-08T02:35:19;4.70;99.90
4596;DHT22;2310;49.978;8.742;2024-03-08T02:39:21;4.80;99.90
4596;DHT22;2310;49.978;8.742;2024-03-08T02:43:28;5.00;99.90
4596;DHT22;2310;49.978;8.742;2024-03-08T02:47:30;5.10;99.90
4596;DHT22;2310;49.978;8.742;2024-03-08T02:51:32;5.00;99.90
4596;DHT22;2310;49.978;8.742;2024-03-08T02:55:35;5.10;99.90
4596;DHT22;2310;49.978;8.742;2024-03-08T02:59:37;5.20;99.90
4596;DHT22;2310;49.978;8.742;2024-03-08T03:03:41;5.20;99.90
4596;DHT22;2310;49.978;8.742;2024-03-08T03:07:43;5.10;99.90
4596;DHT22;2310;49.978;8.742;2024-03-08T03:11:45;4.90;99.90
4596;DHT22;2310;49.978;8.742;2024-03-08T03:15:46;4.80;99.90
4596;DHT22;2310;49.978;8.742;2024-03-08T03:19:48;4.60;99.90
4596;DHT22;2310;49.978;8.742;2024-03-08T03:23:49;4.60;99.90
4596;DHT22;2310;49.978;8.742;2024-03-08T03:27:52;4.50;99.90
4596;DHT22;2310;49.978;8.742;2024-03-08T03:31:56;4.40;99.90
4596;DHT22;2310;49.978;8.742;2024-03-08T03:35:58;4.40;99.90
4596;DHT22;2310;49.978;8.742;2024-03-08T03:40:00;4.40;99.90
4596;DHT22;2310;49.978;8.742;2024-03-08T03:44:03;4.40;99.90
4596;DHT22;2310;49.978;8.742;2024-03-08T03:48:05;4.60;99.90
4596;DHT22;2310;49.978;8.742;2024-03-08T03:52:13;4.70;99.90
4596;DHT22;2310;49.978;8.742;2024-03-08T03:56:16;4.80;99.90
4596;DHT22;2310;49.978;8.742;2024-03-08T04:00:18;4.90;99.90
4596;DHT22;2310;49.978;8.742;2024-03-08T04:04:20;4.90;99.90
4596;DHT22;2310;49.978;8.742;2024-03-08T04:08:21;4.90;99.90
4596;DHT22;2310;49.978;8.742;2024-03-08T04:12:24;5.00;99.90
4596;DHT22;2310;49.978;8.742;2024-03-08T04:16:26;4.90;99.90
4596;DHT22;2310;49.978;8.742;2024-03-08T04:20:27;4.90;99.90
4596;DHT22;2310;49.978;8.742;2024-03-08T04:24:29;5.00;99.90
4596;DHT22;2310;49.978;8.742;2024-03-08T04:28:32;5.10;99.90
4596;DHT22;2310;49.978;8.742;2024-03-08T04:32:33;5.00;99.90
4596;DHT22;2310;49.978;8.742;2024-03-08T04:36:35;4.90;99.90
4596;DHT22;2310;49.978;8.742;2024-03-08T04:40:43;4.80;99.90
4596;DHT22;2310;49.978;8.742;2024-03-08T04:44:44;4.60;99.90
4596;DHT22;2310;49.978;8.742;2024-03-08T04:48:45;4.50;99.90
4596;DHT22;2310;49.978;8.742;2024-03-08T04:52:47;4.50;99.90
4596;DHT22;2310;49.978;8.742;2024-03-08T04:56:49;4.40;99.90
4596;DHT22;2310;49.978;8.742;2024-03-08T05:00:51;4.30;99.90
4596;DHT22;2310;49.978;8.742;2024-03-08T05:04:52;4.30;99.90
4596;DHT22;2310;49.978;8.742;2024-03-08T05:08:54;4.20;99.90
4596;DHT22;2310;49.978;8.742;2024-03-08T05:12:56;4.00;99.90
4596;DHT22;2310;49.978;8.742;2024-03-08T05:16:58;4.10;99.90
4596;DHT22;2310;49.978;8.742;2024-03-08T05:21:02;4.00;99.90
4596;DHT22;2310;49.978;8.742;2024-03-08T05:25:05;3.90;99.90
4596;DHT22;2310;49.978;8.742;2024-03-08T05:29:09;3.80;99.90
4596;DHT22;2310;49.978;8.742;2024-03-08T05:33:10;3.80;99.90
4596;DHT22;2310;49.978;8.742;2024-03-08T05:37:12;3.70;99.90
4596;DHT22;2310;49.978;8.742;2024-03-08T05:41:13;3.70;99.90
4596;DHT22;2310;49.978;8.742;2024-03-08T05:45:15;3.70;99.90
4596;DHT22;2310;49.978;8.742;2024-03-08T05:49:17;3.70;99.90
4596;DHT22;2310;49.978;8.742;2024-03-08T05:53:19;3.70;99.90
4596;DHT22;2310;49.978;8.742;2024-03-08T05:57:20;3.70;99.90
4596;DHT22;2310;49.978;8.742;2024-03-08T06:01:26;3.60;99.90
4596;DHT22;2310;49.978;8.742;2024-03-08T06:05:28;3.60;99.90
4596;DHT22;2310;49.978;8.742;2024-03-08T06:09:29;3.60;99.90
4596;DHT22;2310;49.978;8.742;2024-03-08T06:13:32;3.60;99.90
4596;DHT22;2310;49.978;8.742;2024-03-08T06:17:36;3.60;99.90
4596;DHT22;2310;49.978;8.742;2024-03-08T06:21:37;3.70;99.90
4596;DHT22;2310;49.978;8.742;2024-03-08T06:25:39;3.60;99.90
4596;DHT22;2310;49.978;8.742;2024-03-08T06:29:40;3.60;99.90
4596;DHT22;2310;49.978;8.742;2024-03-08T06:33:41;3.70;99.90
4596;DHT22;2310;49.978;8.742;2024-03-08T06:37:43;3.80;99.90
4596;DHT22;2310;49.978;8.742;2024-03-08T06:41:45;4.00;99.90
4596;DHT22;2310;49.978;8.742;2024-03-08T06:45:47;4.00;99.90
4596;DHT22;2310;49.978;8.742;2024-03-08T06:49:52;3.90;99.90
4596;DHT22;2310;49.978;8.742;2024-03-08T06:53:53;3.90;99.90
4596;DHT22;2310;49.978;8.742;2024-03-08T06:57:54;3.90;99.90
4596;DHT22;2310;49.978;8.742;2024-03-08T07:01:56;4.10;99.90
4596;DHT22;2310;49.978;8.742;2024-03-08T07:05:57;4.30;99.90
4596;DHT22;2310;49.978;8.742;2024-03-08T07:09:59;4.40;99.90
4596;DHT22;2310;49.978;8.742;2024-03-08T07:14:00;4.50;99.90
4596;DHT22;2310;49.978;8.742;2024-03-08T07:18:04;4.60;99.90
4596;DHT22;2310;49.978;8.742;2024-03-08T07:22:05;4.80;99.90
4596;DHT22;2310;49.978;8.742;2024-03-08T07:26:09;4.80;99.90
4596;DHT22;2310;49.978;8.742;2024-03-08T07:30:11;5.00;99.90
4596;DHT22;2310;49.978;8.742;2024-03-08T07:34:13;4.90;99.90
4596;DHT22;2310;49.978;8.742;2024-03-08T07:38:15;5.00;99.90
4596;DHT22;2310;49.978;8.742;2024-03-08T07:42:17;5.20;99.90
4596;DHT22;2310;49.978;8.742;2024-03-08T07:46:22;5.30;99.90
4596;DHT22;2310;49.978;8.742;2024-03-08T07:50:24;5.50;99.90
4596;DHT22;2310;49.978;8.742;2024-03-08T07:54:25;5.80;99.90
4596;DHT22;2310;49.978;8.742;2024-03-08T07:58:27;6.10;99.90
4596;DHT22;2310;49.978;8.742;2024-03-08T08:02:29;6.40;99.90
4596;DHT22;2310;49.978;8.742;2024-03-08T08:06:33;6.80;99.90
4596;DHT22;2310;49.978;8.742;2024-03-08T08:10:37;7.20;99.90
4596;DHT22;2310;49.978;8.742;2024-03-08T08:14:38;7.10;99.90
4596;DHT22;2310;49.978;8.742;2024-03-08T08:18:40;7.50;99.90
4596;DHT22;2310;49.978;8.742;2024-03-08T08:22:42;7.50;99.90
4596;DHT22;2310;49.978;8.742;2024-03-08T08:26:46;8.10;99.90
4596;DHT22;2310;49.978;8.742;2024-03-08T08:30:47;7.90;99.90
4596;DHT22;2310;49.978;8.742;2024-03-08T08:34:49;8.10;99.90
4596;DHT22;2310;49.978;8.742;2024-03-08T08:38:51;7.90;99.90
4596;DHT22;2310;49.978;8.742;2024-03-08T08:42:54;8.10;99.90
4596;DHT22;2310;49.978;8.742;2024-03-08T08:46:58;8.10;99.90
4596;DHT22;2310;49.978;8.742;2024-03-08T08:51:01;8.50;99.90
4596;DHT22;2310;49.978;8.742;2024-03-08T08:55:03;8.50;99.80
4596;DHT22;2310;49.978;8.742;2024-03-08T08:59:05;9.00;99.90
4596;DHT22;2310;49.978;8.742;2024-03-08T09:03:06;9.50;93.60
4596;DHT22;2310;49.978;8.742;2024-03-08T09:07:08;10.00;90.00
4596;DHT22;2310;49.978;8.742;2024-03-08T09:11:09;9.70;85.70
4596;DHT22;2310;49.978;8.742;2024-03-08T09:15:13;9.80;82.60
4596;DHT22;2310;49.978;8.742;2024-03-08T09:19:14;9.40;93.70
4596;DHT22;2310;49.978;8.742;2024-03-08T09:23:16;9.60;86.90
4596;DHT22;2310;49.978;8.742;2024-03-08T09:27:18;9.70;86.40
4596;DHT22;2310;49.978;8.742;2024-03-08T09:31:19;9.20;85.70
4596;DHT22;2310;49.978;8.742;2024-03-08T09:35:27;8.90;91.70
4596;DHT22;2310;49.978;8.742;2024-03-08T09:39:28;9.20;93.30
4596;DHT22;2310;49.978;8.742;2024-03-08T09:43:36;9.50;90.30
4596;DHT22;2310;49.978;8.742;2024-03-08T09:47:41;9.80;84.10
4596;DHT22;2310;49.978;8.742;2024-03-08T09:51:43;9.80;86.10
4596;DHT22;2310;49.978;8.742;2024-03-08T09:55:44;9.90;82.50
4596;DHT22;2310;49.978;8.742;2024-03-08T09:59:46;9.90;81.70
4596;DHT22;2310;49.978;8.742;2024-03-08T10:03:49;10.50;80.40
4596;DHT22;2310;49.978;8.742;2024-03-08T10:07:51;10.40;76.70
4596;DHT22;2310;49.978;8.742;2024-03-08T10:11:57;10.40;74.80
4596;DHT22;2310;49.978;8.742;2024-03-08T10:16:01;10.00;77.90
4596;DHT22;2310;49.978;8.742;2024-03-08T10:20:03;10.40;75.90
4596;DHT22;2310;49.978;8.742;2024-03-08T10:24:10;10.50;75.60
4596;DHT22;2310;49.978;8.742;2024-03-08T10:28:11;10.70;71.20
4596;DHT22;2310;49.978;8.742;2024-03-08T10:32:13;10.50;76.40
4596;DHT22;2310;49.978;8.742;2024-03-08T10:36:15;10.90;72.20
4596;DHT22;2310;49.978;8.742;2024-03-08T10:40:18;10.90;68.20
4596;DHT22;2310;49.978;8.742;2024-03-08T10:48:31;10.90;68.90
4596;DHT22;2310;49.978;8.742;2024-03-08T10:52:35;11.10;69.50
4596;DHT22;2310;49.978;8.742;2024-03-08T10:56:38;11.30;69.20
4596;DHT22;2310;49.978;8.742;2024-03-08T11:00:41;11.40;66.30
4596;DHT22;2310;49.978;8.742;2024-03-08T11:04:50;11.60;64.90
4596;DHT22;2310;49.978;8.742;2024-03-08T11:08:51;11.20;64.50
4596;DHT22;2310;49.978;8.742;2024-03-08T11:12:55;11.40;66.20
4596;DHT22;2310;49.978;8.742;2024-03-08T11:16:56;11.00;66.50
4596;DHT22;2310;49.978;8.742;2024-03-08T11:20:58;11.20;66.50
4596;DHT22;2310;49.978;8.742;2024-03-08T11:25:04;11.20;66.30
4596;DHT22;2310;49.978;8.742;2024-03-08T11:33:37;11.30;64.70
4596;DHT22;2310;49.978;8.742;2024-03-08T11:37:40;11.10;67.20
4596;DHT22;2310;49.978;8.742;2024-03-08T11:41:43;11.30;64.50
4596;DHT22;2310;49.978;8.742;2024-03-08T11:45:47;11.30;64.10
4596;DHT22;2310;49.978;8.742;2024-03-08T11:49:48;11.80;64.50
4596;DHT22;2310;49.978;8.742;2024-03-08T11:53:50;11.90;64.60
4596;DHT22;2310;49.978;8.742;2024-03-08T11:57:59;12.70;71.40
4596;DHT22;2310;49.978;8.742;2024-03-08T12:02:02;11.90;64.20
4596;DHT22;2310;49.978;8.742;2024-03-08T12:06:05;12.30;63.20
4596;DHT22;2310;49.978;8.742;2024-03-08T12:10:18;12.40;63.60
4596;DHT22;2310;49.978;8.742;2024-03-08T12:14:21;12.60;66.10
4596;DHT22;2310;49.978;8.742;2024-03-08T12:18:25;12.10;60.80
4596;DHT22;2310;49.978;8.742;2024-03-08T12:22:27;11.90;63.50
4596;DHT22;2310;49.978;8.742;2024-03-08T12:26:28;12.10;64.80
4596;DHT22;2310;49.978;8.742;2024-03-08T12:30:31;12.00;62.70
4596;DHT22;2310;49.978;8.742;2024-03-08T12:34:34;12.00;66.30
4596;DHT22;2310;49.978;8.742;2024-03-08T12:38:37;12.30;64.40
4596;DHT22;2310;49.978;8.742;2024-03-08T12:42:38;12.30;61.10
4596;DHT22;2310;49.978;8.742;2024-03-08T12:46:40;12.50;60.70
4596;DHT22;2310;49.978;8.742;2024-03-08T12:50:41;12.80;61.00
4596;DHT22;2310;49.978;8.742;2024-03-08T12:54:44;12.60;60.80
4596;DHT22;2310;49.978;8.742;2024-03-08T12:58:46;13.00;61.10
4596;DHT22;2310;49.978;8.742;2024-03-08T13:02:47;12.70;59.00
4596;DHT22;2310;49.978;8.742;2024-03-08T13:06:49;12.80;58.50
4596;DHT22;2310;49.978;8.742;2024-03-08T13:10:53;13.00;59.00
4596;DHT22;2310;49.978;8.742;2024-03-08T13:14:55;12.80;56.70
4596;DHT22;2310;49.978;8.742;2024-03-08T13:18:57;12.70;58.20
4596;DHT22;2310;49.978;8.742;2024-03-08T13:22:58;12.40;59.20
4596;DHT22;2310;49.978;8.742;2024-03-08T13:27:02;12.00;59.60
4596;DHT22;2310;49.978;8.742;2024-03-08T13:31:04;12.70;61.20
4596;DHT22;2310;49.978;8.742;2024-03-08T13:35:07;13.30;59.10
4596;DHT22;2310;49.978;8.742;2024-03-08T13:39:11;12.90;57.80
4596;DHT22;2310;49.978;8.742;2024-03-08T13:43:14;13.00;60.80
4596;DHT22;2310;49.978;8.742;2024-03-08T13:47:16;12.90;58.30
4596;DHT22;2310;49.978;8.742;2024-03-08T13:51:18;12.70;58.40
4596;DHT22;2310;49.978;8.742;2024-03-08T13:55:21;12.90;60.60
4596;DHT22;2310;49.978;8.742;2024-03-08T13:59:30;13.20;58.60
4596;DHT22;2310;49.978;8.742;2024-03-08T14:03:31;12.60;58.30
4596;DHT22;2310;49.978;8.742;2024-03-08T14:07:33;12.50;58.20
4596;DHT22;2310;49.978;8.742;2024-03-08T14:11:35;12.60;58.50
4596;DHT22;2310;49.978;8.742;2024-03-08T14:15:36;12.40;60.00
4596;DHT22;2310;49.978;8.742;2024-03-08T14:19:39;13.00;58.50
4596;DHT22;2310;49.978;8.742;2024-03-08T14:23:41;13.00;57.80
4596;DHT22;2310;49.978;8.742;2024-03-08T14:27:44;12.60;58.10
4596;DHT22;2310;49.978;8.742;2024-03-08T14:31:46;12.60;59.80
4596;DHT22;2310;49.978;8.742;2024-03-08T14:35:47;12.80;58.50
4596;DHT22;2310;49.978;8.742;2024-03-08T14:39:50;12.90;58.50
4596;DHT22;2310;49.978;8.742;2024-03-08T14:43:53;12.90;58.60
4596;DHT22;2310;49.978;8.742;2024-03-08T14:47:54;12.80;57.50
4596;DHT22;2310;49.978;8.742;2024-03-08T14:51:56;12.80;57.60
4596;DHT22;2310;49.978;8.742;2024-03-08T14:55:59;13.10;58.10
4596;DHT22;2310;49.978;8.742;2024-03-08T15:00:01;12.80;56.70
4596;DHT22;2310;49.978;8.742;2024-03-08T15:04:07;12.60;57.80
4596;DHT22;2310;49.978;8.742;2024-03-08T15:08:11;12.40;57.90
4596;DHT22;2310;49.978;8.742;2024-03-08T15:12:14;12.60;59.00
4596;DHT22;2310;49.978;8.742;2024-03-08T15:16:16;12.70;57.70
4596;DHT22;2310;49.978;8.742;2024-03-08T15:20:19;12.50;57.20
4596;DHT22;2310;49.978;8.742;2024-03-08T15:24:30;12.70;58.80
4596;DHT22;2310;49.978;8.742;2024-03-08T15:28:33;12.90;57.90
4596;DHT22;2310;49.978;8.742;2024-03-08T15:32:45;12.90;56.20
4596;DHT22;2310;49.978;8.742;2024-03-08T15:36:47;12.80;56.40
4596;DHT22;2310;49.978;8.742;2024-03-08T15:40:50;12.50;56.00
4596;DHT22;2310;49.978;8.742;2024-03-08T15:44:52;12.80;56.90
4596;DHT22;2310;49.978;8.742;2024-03-08T15:48:55;12.90;55.90
4596;DHT22;2310;49.978;8.742;2024-03-08T15:52:58;12.80;55.00
4596;DHT22;2310;49.978;8.742;2024-03-08T15:57:00;12.80;54.30
4596;DHT22;2310;49.978;8.742;2024-03-08T16:01:04;12.70;54.00
4596;DHT22;2310;49.978;8.742;2024-03-08T16:05:09;12.80;54.70
4596;DHT22;2310;49.978;8.742;2024-03-08T16:09:12;13.00;54.20
4596;DHT22;2310;49.978;8.742;2024-03-08T16:13:17;12.80;53.60
4596;DHT22;2310;49.978;8.742;2024-03-08T16:17:18;12.90;54.70
4596;DHT22;2310;49.978;8.742;2024-03-08T16:21:20;12.80;54.00
4596;DHT22;2310;49.978;8.742;2024-03-08T16:25:21;12.80;55.20
4596;DHT22;2310;49.978;8.742;2024-03-08T16:29:23;12.80;54.50
4596;DHT22;2310;49.978;8.742;2024-03-08T16:33:25;12.80;54.80
4596;DHT22;2310;49.978;8.742;2024-03-08T16:37:26;12.70;54.20
4596;DHT22;2310;49.978;8.742;2024-03-08T16:41:31;12.70;54.90
4596;DHT22;2310;49.978;8.742;2024-03-08T16:45:33;12.90;54.90
4596;DHT22;2310;49.978;8.742;2024-03-08T16:49:35;12.80;54.60
4596;DHT22;2310;49.978;8.742;2024-03-08T16:53:37;12.50;53.60
4596;DHT22;2310;49.978;8.742;2024-03-08T16:57:45;12.40;54.40
4596;DHT22;2310;49.978;8.742;2024-03-08T17:01:46;12.30;54.80
4596;DHT22;2310;49.978;8.742;2024-03-08T17:05:49;12.20;55.00
4596;DHT22;2310;49.978;8.742;2024-03-08T17:09:55;12.20;55.70
4596;DHT22;2310;49.978;8.742;2024-03-08T17:13:58;11.90;56.10
4596;DHT22;2310;49.978;8.742;2024-03-08T17:18:01;11.70;57.30
4596;DHT22;2310;49.978;8.742;2024-03-08T17:22:10;11.60;58.00
4596;DHT22;2310;49.978;8.742;2024-03-08T17:26:12;11.60;58.70
4596;DHT22;2310;49.978;8.742;2024-03-08T17:30:13;11.60;58.70
4596;DHT22;2310;49.978;8.742;2024-03-08T17:34:22;11.70;58.70
4596;DHT22;2310;49.978;8.742;2024-03-08T17:38:24;11.50;59.20
4596;DHT22;2310;49.978;8.742;2024-03-08T17:42:25;11.50;63.70
4596;DHT22;2310;49.978;8.742;2024-03-08T17:46:28;11.30;63.50
4596;DHT22;2310;49.978;8.742;2024-03-08T17:50:30;11.10;63.60
4596;DHT22;2310;49.978;8.742;2024-03-08T17:54:31;11.10;64.10
4596;DHT22;2310;49.978;8.742;2024-03-08T17:58:33;11.00;64.00
4596;DHT22;2310;49.978;8.742;2024-03-08T18:02:35;10.80;64.90
4596;DHT22;2310;49.978;8.742;2024-03-08T18:06:36;10.80;64.70
4596;DHT22;2310;49.978;8.742;2024-03-08T18:10:37;10.80;64.50
4596;DHT22;2310;49.978;8.742;2024-03-08T18:14:39;10.60;65.00
4596;DHT22;2310;49.978;8.742;2024-03-08T18:18:41;10.60;65.40
4596;DHT22;2310;49.978;8.742;2024-03-08T18:22:43;10.60;66.00
4596;DHT22;2310;49.978;8.742;2024-03-08T18:26:45;10.60;65.90
4596;DHT22;2310;49.978;8.742;2024-03-08T18:30:46;10.40;66.10
4596;DHT22;2310;49.978;8.742;2024-03-08T18:34:49;10.40;67.40
4596;DHT22;2310;49.978;8.742;2024-03-08T18:38:51;10.30;68.00
4596;DHT22;2310;49.978;8.742;2024-03-08T18:42:54;10.30;68.80
4596;DHT22;2310;49.978;8.742;2024-03-08T18:46:55;10.30;69.40
4596;DHT22;2310;49.978;8.742;2024-03-08T18:50:59;10.30;70.20
4596;DHT22;2310;49.978;8.742;2024-03-08T18:55:00;10.30;69.60
4596;DHT22;2310;49.978;8.742;2024-03-08T18:59:01;10.40;69.50
4596;DHT22;2310;49.978;8.742;2024-03-08T19:03:05;10.40;69.00
4596;DHT22;2310;49.978;8.742;2024-03-08T19:07:09;10.30;69.50
4596;DHT22;2310;49.978;8.742;2024-03-08T19:11:13;10.10;71.70
4596;DHT22;2310;49.978;8.742;2024-03-08T19:15:15;10.00;72.80
4596;DHT22;2310;49.978;8.742;2024-03-08T19:19:20;10.00;73.20
4596;DHT22;2310;49.978;8.742;2024-03-08T19:23:23;10.00;74.90
4596;DHT22;2310;49.978;8.742;2024-03-08T19:27:25;10.00;75.10
4596;DHT22;2310;49.978;8.742;2024-03-08T19:31:26;10.00;75.30
4596;DHT22;2310;49.978;8.742;2024-03-08T19:35:29;10.10;75.20
4596;DHT22;2310;49.978;8.742;2024-03-08T19:39:30;10.10;74.90
4596;DHT22;2310;49.978;8.742;2024-03-08T19:43:32;10.10;75.20
4596;DHT22;2310;49.978;8.742;2024-03-08T19:47:33;10.20;75.70
4596;DHT22;2310;49.978;8.742;2024-03-08T19:51:35;10.20;75.90
4596;DHT22;2310;49.978;8.742;2024-03-08T19:55:38;10.20;76.10
4596;DHT22;2310;49.978;8.742;2024-03-08T19:59:40;10.10;77.70
4596;DHT22;2310;49.978;8.742;2024-03-08T20:03:46;10.10;77.80
4596;DHT22;2310;49.978;8.742;2024-03-08T20:07:48;10.00;80.20
4596;DHT22;2310;49.978;8.742;2024-03-08T20:11:53;9.70;85.20
4596;DHT22;2310;49.978;8.742;2024-03-08T20:15:56;9.40;88.60
4596;DHT22;2310;49.978;8.742;2024-03-08T20:19:58;9.30;91.30
4596;DHT22;2310;49.978;8.742;2024-03-08T20:24:02;9.10;92.80
4596;DHT22;2310;49.978;8.742;2024-03-08T20:28:04;9.00;94.00
4596;DHT22;2310;49.978;8.742;2024-03-08T20:32:06;8.90;95.80
4596;DHT22;2310;49.978;8.742;2024-03-08T20:36:09;8.90;96.30
4596;DHT22;2310;49.978;8.742;2024-03-08T20:40:11;9.10;95.50
4596;DHT22;2310;49.978;8.742;2024-03-08T20:44:13;9.10;95.40
4596;DHT22;2310;49.978;8.742;2024-03-08T20:48:16;9.10;95.10
4596;DHT22;2310;49.978;8.742;2024-03-08T20:52:17;9.10;95.60
4596;DHT22;2310;49.978;8.742;2024-03-08T20:56:20;9.00;97.30
4596;DHT22;2310;49.978;8.742;2024-03-08T21:00:22;9.00;99.00
4596;DHT22;2310;49.978;8.742;2024-03-08T21:04:35;9.00;99.70
4596;DHT22;2310;49.978;8.742;2024-03-08T21:08:36;9.10;99.40
4596;DHT22;2310;49.978;8.742;2024-03-08T21:12:39;8.90;99.90
4596;DHT22;2310;49.978;8.742;2024-03-08T21:16:42;8.80;99.90
4596;DHT22;2310;49.978;8.742;2024-03-08T21:20:43;8.80;99.90
4596;DHT22;2310;49.978;8.742;2024-03-08T21:24:45;8.70;99.90
4596;DHT22;2310;49.978;8.742;2024-03-08T21:28:51;8.50;99.90
4596;DHT22;2310;49.978;8.742;2024-03-08T21:32:50;8.60;99.90
4596;DHT22;2310;49.978;8.742;2024-03-08T21:36:51;8.70;99.90
4596;DHT22;2310;49.978;8.742;2024-03-08T21:40:53;8.60;99.90
4596;DHT22;2310;49.978;8.742;2024-03-08T21:44:56;8.60;99.90
4596;DHT22;2310;49.978;8.742;2024-03-08T21:49:05;8.50;99.90
4596;DHT22;2310;49.978;8.742;2024-03-08T21:53:07;8.50;99.90
4596;DHT22;2310;49.978;8.742;2024-03-08T21:57:10;8.50;99.90
4596;DHT22;2310;49.978;8.742;2024-03-08T22:01:12;8.60;99.90
4596;DHT22;2310;49.978;8.742;2024-03-08T22:05:14;8.60;99.90
4596;DHT22;2310;49.978;8.742;2024-03-08T22:09:24;8.60;99.90
4596;DHT22;2310;49.978;8.742;2024-03-08T22:13:25;8.60;99.90
4596;DHT22;2310;49.978;8.742;2024-03-08T22:17:27;8.70;99.90
4596;DHT22;2310;49.978;8.742;2024-03-08T22:21:31;8.70;99.90
4596;DHT22;2310;49.978;8.742;2024-03-08T22:25:34;8.70;99.90
4596;DHT22;2310;49.978;8.742;2024-03-08T22:29:37;8.60;99.90
4596;DHT22;2310;49.978;8.742;2024-03-08T22:33:38;8.70;99.90
4596;DHT22;2310;49.978;8.742;2024-03-08T22:37:41;8.60;99.90
4596;DHT22;2310;49.978;8.742;2024-03-08T22:41:43;8.60;99.90
4596;DHT22;2310;49.978;8.742;2024-03-08T22:45:44;8.50;99.90
4596;DHT22;2310;49.978;8.742;2024-03-08T22:49:48;8.50;99.90
4596;DHT22;2310;49.978;8.742;2024-03-08T22:53:50;8.60;99.90
4596;DHT22;2310;49.978;8.742;2024-03-08T22:57:51;8.60;99.90
4596;DHT22;2310;49.978;8.742;2024-03-08T23:01:53;8.60;99.90
4596;DHT22;2310;49.978;8.742;2024-03-08T23:05:54;8.60;99.90
4596;DHT22;2310;49.978;8.742;2024-03-08T23:09:58;8.50;99.90
4596;DHT22;2310;49.978;8.742;2024-03-08T23:14:00;8.40;99.90
4596;DHT22;2310;49.978;8.742;2024-03-08T23:18:01;8.40;99.90
4596;DHT22;2310;49.978;8.742;2024-03-08T23:22:05;8.30;99.90
4596;DHT22;2310;49.978;8.742;2024-03-08T23:26:09;8.30;99.90
4596;DHT22;2310;49.978;8.742;2024-03-08T23:30:12;8.30;99.90
4596;DHT22;2310;49.978;8.742;2024-03-08T23:34:13;8.10;99.90
4596;DHT22;2310;49.978;8.742;2024-03-08T23:38:14;8.20;99.90
4596;DHT22;2310;49.978;8.742;2024-03-08T23:42:16;8.20;99.90
4596;DHT22;2310;49.978;8.742;2024-03-08T23:46:18;8.10;99.90
4596;DHT22;2310;49.978;8.742;2024-03-08T23:50:21;8.00;99.90
4596;DHT22;2310;49.978;8.742;2024-03-08T23:54:27;7.90;99.90
4596;DHT22;2310;49.978;8.742;2024-03-08T23:58:28;7.80;99.90
